Thursday, February 22, 2018, 5:30 AM EST
Back to Local

KNGU, Norfolk, Naval Air Station

Location: Norfolk, VA, United States Lat: 36.934
Local Time: 5:30 AM EST (10:30 GMT) Lon: -76.296
Time Zone: US/Eastern Elev: 13 ft

Show me the last for .
Show Decoded

2018-02-22 04:59 METAR KNGU 220959Z 21008KT 9SM CLR 18/17 A3043 RMK SLP304 T01830167 =
2018-02-22 03:59 METAR KNGU 220859Z 21009KT 10SM FEW050 18/17 A3043 RMK SLP304 T01830167 50002 =
2018-02-22 01:59 METAR KNGU 220659Z 20007KT 10SM CLR 18/16 A3043 RMK AO2 SLP304 T01830161 =
2018-02-22 00:59 METAR KNGU 220559Z 19007KT 10SM CLR 19/16 A3042 RMK AO2 SLP301 T01890156 10217
                 20172 50004 =
2018-02-21 23:59 METAR KNGU 220459Z 20008KT 10SM CLR 19/16 A3043 RMK AO2 SLP303 T01940156
                 402500172 =
2018-02-21 22:59 METAR KNGU 220359Z 20007KT 10SM CLR 19/16 A3042 RMK AO2 SLP302 T01940156 =
2018-02-21 21:59 METAR KNGU 220259Z 18006KT 10SM FEW050 20/16 A3041 RMK AO2 SLP297 T02000156
                 50004 =
2018-02-21 20:59 METAR KNGU 220159Z 18003KT 10SM FEW045 17/16 A3041 RMK AO2 SLP298 T01720156 =
2018-02-21 19:59 METAR KNGU 220059Z 20003KT 10SM FEW045 FEW100 19/16 A3041 RMK AO2 SLP296
                 T01890156 =
2018-02-21 18:59 METAR KNGU 212359Z 19004KT 10SM FEW045 22/16 A3040 RMK AO2 SLP293 T02170156
                 10250 20211 53003 =
2018-02-21 17:59 METAR KNGU 212259Z 21004KT 10SM FEW037 22/16 A3039 RMK AO2 SLP291 T02220156 =
2018-02-21 16:59 METAR KNGU 212159Z 24011KT 10SM FEW037 24/16 A3039 RMK AO2 SLP291 T02390161 =
2018-02-21 15:59 METAR KNGU 212059Z 23012G18KT 10SM SCT037 24/16 A3039 RMK AO2 SLP290 T02440156
                 56014 =
2018-02-21 14:59 METAR KNGU 211959Z 23010G18KT 10SM SCT037 24/16 A3039 RMK AO2 SLP291 T02390161 =
2018-02-21 13:59 METAR KNGU 211859Z 25009G20KT 10SM SCT038 24/16 A3040 RMK AO2 SLP295 T02390161 =
2018-02-21 12:59 METAR KNGU 211759Z 25014KT 10SM FEW027 BKN034 23/16 A3043 RMK AO2 SLP304
                 T02330161 10239 20189 58014 =
2018-02-21 12:09 METAR KNGU 211709Z 25010KT 10SM SCT027 BKN033 23/17 A3045 RMK AO2 T02280167 =
2018-02-21 11:59 METAR KNGU 211659Z 24010KT 10SM BKN029 22/17 A3046 RMK AO2 SLP314 T02220167 =
2018-02-21 10:59 METAR KNGU 211559Z 23008KT 10SM BKN018 BKN025 22/17 A3048 RMK AO2 SLP320
                 T02170172 =
2018-02-21 10:11 METAR KNGU 211511Z 23008KT 10SM BKN015 21/17 A3047 RMK AO2 T02110172 =
2018-02-21 09:59 METAR KNGU 211459Z 24007KT 10SM BKN014 21/17 A3047 RMK AO2 SLP317 T02060172
                 51003 =
2018-02-21 08:59 METAR KNGU 211359Z 22008KT 7SM BKN011 BKN016 20/17 A3046 RMK AO2 SLP315
                 T02000172 =
2018-02-21 07:59 METAR KNGU 211259Z 22007KT 7SM OVC011 19/17 A3047 RMK AO2 SLP318 T01940172 =
2018-02-21 06:59 METAR KNGU 211159Z 22006KT 6SM BR OVC011 19/17 A3046 RMK AO2 SLP315 T01890172
                 10194 20189 53009 =
2018-02-21 05:59 METAR KNGU 211059Z 21008KT 9SM BKN011 19/17 A3044 RMK AO2 SLP308 T01890172 =

Support USWX by starting your Amazon purchase here.